createdAt,value
2019-05-02T05:39:43.086Z,936.00
2019-05-02T05:40:42.065Z,912.00
2019-05-02T05:41:42.814Z,860.00
2019-05-02T05:42:43.055Z,928.00
2019-05-02T05:43:44.895Z,944.00
2019-05-02T05:44:43.017Z,996.00
2019-05-02T05:45:53.554Z,984.00
2019-05-02T05:46:43.000Z,1116.00
2019-05-02T05:47:41.998Z,1028.00
2019-05-02T05:48:41.979Z,1112.00
2019-05-02T05:49:41.964Z,1080.00
2019-05-02T05:50:41.962Z,1124.00
2019-05-02T05:51:41.947Z,1120.00
2019-05-02T05:52:42.601Z,1004.00
2019-05-02T05:53:41.927Z,1192.00
2019-05-02T05:54:42.207Z,1172.00
2019-05-02T05:55:41.902Z,1228.00
2019-05-02T05:56:43.215Z,1164.00
2019-05-02T05:57:41.906Z,1236.00
2019-05-02T05:58:48.052Z,1464.00
2019-05-02T05:59:42.858Z,1396.00
2019-05-02T06:00:45.954Z,1452.00
2019-05-02T06:01:42.840Z,1452.00
2019-05-02T06:02:52.837Z,1380.00
2019-05-02T06:03:45.007Z,1236.00
2019-05-02T06:04:41.798Z,1228.00
2019-05-02T06:05:42.304Z,1240.00
2019-05-02T06:06:41.777Z,1244.00
2019-05-02T06:07:44.811Z,1224.00
2019-05-02T06:08:41.766Z,1220.00
2019-05-02T06:09:41.749Z,1220.00
2019-05-02T06:10:43.981Z,1188.00
2019-05-02T06:11:41.728Z,1232.00
2019-05-02T06:12:41.716Z,1276.00
2019-05-02T06:13:42.962Z,1264.00
2019-05-02T06:14:42.691Z,1444.00
2019-05-02T06:15:41.717Z,1344.00
2019-05-02T06:16:46.321Z,1388.00
2019-05-02T06:17:42.666Z,1344.00
2019-05-02T06:18:43.431Z,1296.00
2019-05-02T06:19:41.640Z,1488.00
2019-05-02T06:20:41.625Z,1848.00
2019-05-02T06:21:45.111Z,1416.00
2019-05-02T06:22:42.604Z,1748.00
2019-05-02T06:23:41.700Z,2172.00
2019-05-02T06:24:41.587Z,1988.00
2019-05-02T06:25:42.686Z,1932.00
2019-05-02T06:26:44.777Z,1872.00
2019-05-02T06:27:42.562Z,1852.00
2019-05-02T06:28:43.238Z,1708.00
2019-05-02T06:29:41.577Z,1872.00
2019-05-02T06:30:41.528Z,1864.00
2019-05-02T06:31:43.032Z,1696.00
2019-05-02T06:32:41.496Z,1816.00
2019-05-02T06:33:41.484Z,1752.00
2019-05-02T06:34:46.477Z,1664.00
2019-05-02T06:35:42.473Z,1716.00
2019-05-02T06:36:41.453Z,1560.00
2019-05-02T06:37:45.388Z,1592.00
2019-05-02T06:38:42.429Z,1648.00
2019-05-02T06:39:41.426Z,1656.00
2019-05-02T06:40:44.619Z,1924.00
2019-05-02T06:41:42.405Z,2036.00
2019-05-02T06:42:41.397Z,2124.00
2019-05-02T06:43:46.426Z,1892.00
2019-05-02T06:44:42.378Z,2300.00
2019-05-02T06:45:41.384Z,2396.00
2019-05-02T06:46:41.348Z,2164.00
2019-05-02T06:47:43.503Z,2256.00
2019-05-02T06:48:41.326Z,2320.00
2019-05-02T06:49:41.309Z,2424.00
2019-05-02T06:50:41.298Z,2092.00
2019-05-02T06:51:41.307Z,2068.00
2019-05-02T06:52:41.282Z,2348.00
2019-05-02T06:53:46.528Z,2772.00
2019-05-02T06:54:42.262Z,2896.00
2019-05-02T06:55:41.243Z,2944.00
2019-05-02T06:56:43.179Z,2852.00
2019-05-02T06:57:42.233Z,2624.00
2019-05-02T06:58:41.908Z,2692.00
2019-05-02T06:59:41.210Z,2456.00
2019-05-02T07:00:56.479Z,2764.00
2019-05-02T07:01:42.177Z,2980.00
2019-05-02T07:02:41.166Z,2732.00
2019-05-02T07:03:45.866Z,2484.00
2019-05-02T07:04:42.152Z,2392.00
2019-05-02T07:05:41.163Z,2420.00
2019-05-02T07:06:50.208Z,2736.00
2019-05-02T07:07:42.114Z,2340.00
2019-05-02T07:08:41.128Z,2152.00
2019-05-02T07:09:41.864Z,2256.00
2019-05-02T07:10:44.745Z,2072.00
2019-05-02T07:11:41.178Z,2012.00
2019-05-02T07:12:41.058Z,1956.00
2019-05-02T07:13:42.027Z,1944.00
2019-05-02T07:14:41.037Z,2180.00
2019-05-02T07:15:41.057Z,2548.00
2019-05-02T07:16:41.025Z,2440.00
2019-05-02T07:17:41.006Z,2684.00
2019-05-02T07:18:42.114Z,2004.00
2019-05-02T07:19:41.987Z,1648.00
2019-05-02T07:20:42.551Z,1716.00
2019-05-02T07:21:40.997Z,1952.00
2019-05-02T07:22:41.027Z,2076.00
2019-05-02T07:23:40.946Z,2212.00
2019-05-02T07:24:40.932Z,2044.00
2019-05-02T07:25:43.874Z,1840.00
2019-05-02T07:26:40.907Z,1664.00
2019-05-02T07:27:40.912Z,1648.00
2019-05-02T07:28:45.755Z,1820.00
2019-05-02T07:29:41.876Z,1924.00
2019-05-02T07:30:40.874Z,2032.00
2019-05-02T07:31:42.992Z,1764.00
2019-05-02T07:32:41.840Z,1636.00
2019-05-02T07:33:40.842Z,1860.00
2019-05-02T07:34:44.130Z,1984.00
2019-05-02T07:35:41.821Z,2052.00
2019-05-02T07:36:40.818Z,2036.00
2019-05-02T07:37:44.136Z,1868.00
2019-05-02T07:38:41.777Z,1724.00
2019-05-02T07:39:41.295Z,1812.00
2019-05-02T07:40:40.760Z,2008.00
2019-05-02T07:41:40.802Z,1960.00
2019-05-02T07:42:41.875Z,1880.00
2019-05-02T07:43:40.729Z,2020.00
2019-05-02T07:44:40.757Z,1796.00
2019-05-02T07:45:45.450Z,1924.00
2019-05-02T07:46:51.550Z,1964.00
2019-05-02T07:47:42.488Z,1860.00
2019-05-02T07:48:43.551Z,1852.00
2019-05-02T07:49:40.665Z,1988.00
2019-05-02T07:50:41.181Z,1976.00
2019-05-02T07:51:41.636Z,2052.00
2019-05-02T07:52:41.264Z,2056.00
2019-05-02T07:53:44.451Z,1984.00
2019-05-02T07:54:41.603Z,1980.00
2019-05-02T07:55:42.664Z,2168.00
2019-05-02T07:56:40.586Z,1904.00
2019-05-02T07:57:40.573Z,1960.00
2019-05-02T07:58:47.022Z,1932.00
2019-05-02T07:59:41.550Z,1888.00
2019-05-02T08:00:40.564Z,2052.00
2019-05-02T08:01:44.681Z,2224.00
2019-05-02T08:02:40.521Z,1784.00
2019-05-02T08:03:40.512Z,1728.00
2019-05-02T08:04:43.657Z,1944.00
2019-05-02T08:05:40.493Z,2060.00
2019-05-02T08:06:44.617Z,2124.00
2019-05-02T08:07:41.487Z,2240.00
2019-05-02T08:08:40.460Z,2136.00
2019-05-02T08:09:43.991Z,2024.00
2019-05-02T08:10:40.432Z,1948.00
2019-05-02T08:11:40.433Z,2004.00
2019-05-02T08:12:40.415Z,2156.00
2019-05-02T08:13:40.421Z,2224.00
2019-05-02T08:14:40.391Z,2192.00
2019-05-02T08:15:40.379Z,2504.00
2019-05-02T08:16:40.368Z,2556.00
2019-05-02T08:17:40.368Z,2604.00
2019-05-02T08:18:40.362Z,2324.00
2019-05-02T08:19:41.901Z,2172.00
2019-05-02T08:20:40.324Z,2252.00
2019-05-02T08:21:40.322Z,2192.00
2019-05-02T08:22:44.085Z,2716.00
2019-05-02T08:23:41.313Z,2744.00
2019-05-02T08:24:40.282Z,2516.00
2019-05-02T08:25:41.531Z,2272.00
2019-05-02T08:26:41.260Z,2568.00
2019-05-02T08:27:40.250Z,2368.00
2019-05-02T08:28:40.256Z,2488.00
2019-05-02T08:29:40.229Z,2836.00
2019-05-02T08:30:41.764Z,2700.00
2019-05-02T08:31:40.213Z,2504.00
2019-05-02T08:32:40.201Z,2236.00
2019-05-02T08:33:40.199Z,2440.00
2019-05-02T08:34:40.179Z,2400.00
2019-05-02T08:35:47.841Z,2396.00
2019-05-02T08:36:40.157Z,2316.00
2019-05-02T08:37:41.081Z,2632.00
2019-05-02T08:38:40.139Z,2720.00
2019-05-02T08:39:40.122Z,2612.00
2019-05-02T08:40:42.351Z,2580.00
2019-05-02T08:41:41.100Z,2556.00
2019-05-02T08:42:40.084Z,2648.00
2019-05-02T08:43:47.147Z,2544.00
2019-05-02T08:44:51.105Z,2356.00
2019-05-02T08:45:40.057Z,2716.00
2019-05-02T08:46:51.544Z,3380.00
2019-05-02T08:47:41.034Z,3180.00
2019-05-02T08:48:41.808Z,3220.00
2019-05-02T08:49:42.396Z,3212.00
2019-05-02T08:50:40.002Z,3188.00
2019-05-02T08:51:41.581Z,2828.00
2019-05-02T08:52:42.089Z,2872.00
2019-05-02T08:53:52.201Z,2992.00
2019-05-02T08:55:49.741Z,3148.00
2019-05-02T08:56:58.956Z,3036.00
2019-05-02T08:57:57.504Z,3104.00
2019-05-02T08:58:58.047Z,2952.00
2019-05-02T08:59:49.679Z,2836.00
2019-05-02T09:00:49.674Z,2964.00
2019-05-02T09:01:51.447Z,2760.00
2019-05-02T09:02:49.641Z,3044.00
2019-05-02T09:03:55.148Z,2888.00
2019-05-02T09:04:58.202Z,2896.00
2019-05-02T09:05:50.626Z,2744.00
2019-05-02T09:06:53.139Z,3136.00
2019-05-02T09:07:50.589Z,2936.00
2019-05-02T09:08:51.506Z,3132.00
2019-05-02T09:09:49.565Z,2852.00
2019-05-02T09:10:49.559Z,3256.00
2019-05-02T09:12:04.940Z,3896.00
2019-05-02T09:12:52.096Z,3984.00
2019-05-02T09:13:49.529Z,3604.00
2019-05-02T09:14:49.509Z,3120.00
2019-05-02T09:15:51.596Z,3416.00
2019-05-02T09:16:49.494Z,3548.00
2019-05-02T09:17:54.469Z,3756.00
2019-05-02T09:18:53.800Z,4148.00
2019-05-02T09:20:00.333Z,3976.00
2019-05-02T09:20:52.562Z,3984.00
2019-05-02T09:21:52.595Z,3760.00
2019-05-02T09:22:52.168Z,3892.00
2019-05-02T09:23:51.756Z,3804.00
2019-05-02T09:24:49.402Z,3200.00
2019-05-02T09:25:49.388Z,3588.00
2019-05-02T09:26:49.383Z,3136.00
2019-05-02T09:27:49.365Z,2852.00
2019-05-02T09:28:49.355Z,2788.00
2019-05-02T09:29:49.361Z,3004.00
2019-05-02T09:30:49.336Z,3236.00
2019-05-02T09:31:49.321Z,3476.00
2019-05-02T09:32:49.310Z,3708.00
2019-05-02T09:33:49.304Z,3484.00
2019-05-02T09:34:49.304Z,3908.00
2019-05-02T09:35:49.294Z,3472.00
2019-05-02T09:36:49.266Z,3428.00
2019-05-02T09:37:49.255Z,3436.00
2019-05-02T09:38:55.981Z,4024.00
2019-05-02T09:39:52.462Z,3600.00
2019-05-02T09:40:52.542Z,3120.00
2019-05-02T09:41:52.255Z,3028.00
2019-05-02T09:42:53.430Z,3424.00
2019-05-02T09:43:52.036Z,2968.00
2019-05-02T09:44:55.772Z,2932.00
2019-05-02T09:45:51.984Z,3344.00
2019-05-02T09:46:52.995Z,3304.00
2019-05-02T09:48:01.263Z,3088.00
2019-05-02T09:48:51.865Z,2832.00
2019-05-02T09:49:50.401Z,3040.00
2019-05-02T09:50:49.133Z,3648.00
2019-05-02T09:51:50.424Z,4056.00
2019-05-02T09:52:52.255Z,3288.00
2019-05-02T09:53:49.092Z,3316.00
2019-05-02T09:54:49.074Z,3492.00
2019-05-02T09:55:52.116Z,3544.00
2019-05-02T09:56:52.167Z,3244.00
2019-05-02T09:57:49.037Z,2972.00
2019-05-02T09:58:49.458Z,3036.00
2019-05-02T09:59:50.596Z,3592.00
2019-05-02T10:00:50.003Z,3864.00
2019-05-02T10:01:49.007Z,3448.00
2019-05-02T10:02:48.983Z,3756.00
2019-05-02T10:03:48.982Z,4228.00
2019-05-02T10:04:48.966Z,3372.00
2019-05-02T10:05:48.969Z,3116.00
2019-05-02T10:06:48.951Z,3260.00
2019-05-02T10:07:48.939Z,3152.00
2019-05-02T10:08:48.923Z,2940.00
2019-05-02T10:09:48.915Z,2896.00
2019-05-02T10:10:48.893Z,2764.00
2019-05-02T10:11:48.895Z,3092.00
2019-05-02T10:12:48.885Z,3104.00
2019-05-02T10:13:48.865Z,2920.00
2019-05-02T10:14:48.852Z,2548.00
2019-05-02T10:15:48.847Z,2504.00
2019-05-02T10:16:48.835Z,2636.00
2019-05-02T10:17:48.837Z,3200.00
2019-05-02T10:18:48.813Z,2928.00
2019-05-02T10:19:52.751Z,3212.00
2019-05-02T10:20:49.800Z,3364.00
2019-05-02T10:21:54.365Z,3368.00
2019-05-02T10:22:49.785Z,3044.00
2019-05-02T10:23:51.754Z,3356.00
2019-05-02T10:24:51.860Z,3256.00
2019-05-02T10:25:48.737Z,2976.00
2019-05-02T10:26:48.720Z,3476.00
2019-05-02T10:27:57.579Z,3428.00
2019-05-02T10:28:50.427Z,3236.00
2019-05-02T10:29:48.695Z,3172.00
2019-05-02T10:30:52.527Z,3432.00
2019-05-02T10:31:49.667Z,3384.00
2019-05-02T10:32:52.921Z,3428.00
2019-05-02T10:33:49.640Z,2856.00
2019-05-02T10:34:53.136Z,2536.00
2019-05-02T10:35:49.627Z,2680.00
2019-05-02T10:36:54.167Z,2608.00
2019-05-02T10:37:49.615Z,2912.00
2019-05-02T10:38:48.969Z,3308.00
2019-05-02T10:39:48.593Z,3304.00
2019-05-02T10:40:53.470Z,3688.00
2019-05-02T10:41:49.560Z,3320.00
2019-05-02T10:42:48.542Z,2988.00
2019-05-02T10:43:53.922Z,2980.00
2019-05-02T10:44:49.525Z,3392.00
2019-05-02T10:45:54.860Z,4328.00
2019-05-02T10:46:49.498Z,4524.00
2019-05-02T10:47:48.498Z,4244.00
2019-05-02T10:48:48.477Z,3732.00
2019-05-02T10:49:48.479Z,3596.00
2019-05-02T10:50:48.502Z,3772.00
2019-05-02T10:51:50.982Z,3628.00
2019-05-02T10:52:48.434Z,3816.00
2019-05-02T10:53:52.626Z,3352.00
2019-05-02T10:54:49.411Z,3364.00
2019-05-02T10:55:48.401Z,3024.00
2019-05-02T10:56:48.404Z,2960.00
2019-05-02T10:57:48.893Z,2772.00
2019-05-02T10:58:48.369Z,3036.00
2019-05-02T10:59:48.362Z,2980.00
2019-05-02T11:00:48.352Z,2748.00
2019-05-02T11:01:48.335Z,3028.00
2019-05-02T11:02:48.334Z,3104.00
2019-05-02T11:03:48.321Z,3576.00
2019-05-02T11:04:48.304Z,3104.00
2019-05-02T11:05:48.294Z,3072.00
2019-05-02T11:06:48.315Z,3072.00
2019-05-02T11:07:48.270Z,2964.00
2019-05-02T11:08:48.259Z,3036.00
2019-05-02T11:09:48.250Z,3320.00
2019-05-02T11:10:48.243Z,3060.00
2019-05-02T11:11:48.227Z,3388.00
2019-05-02T11:12:48.226Z,3020.00
2019-05-02T11:13:48.211Z,2756.00
2019-05-02T11:14:48.198Z,2904.00
2019-05-02T11:15:48.184Z,3044.00
2019-05-02T11:16:48.247Z,3160.00
2019-05-02T11:18:56.963Z,2932.00
2019-05-02T11:19:56.912Z,3096.00
2019-05-02T11:20:58.953Z,2940.00
2019-05-02T11:21:59.097Z,2716.00
2019-05-02T11:22:56.877Z,2568.00
2019-05-02T11:23:57.037Z,2532.00
2019-05-02T11:24:56.873Z,2584.00
2019-05-02T11:25:56.847Z,2480.00
2019-05-02T11:26:56.838Z,2872.00
2019-05-02T11:27:57.307Z,2968.00
2019-05-02T11:28:56.820Z,2620.00
2019-05-02T11:29:56.803Z,2540.00
2019-05-02T11:30:57.158Z,2536.00
2019-05-02T11:31:56.786Z,2552.00
2019-05-02T11:32:56.774Z,3036.00
2019-05-02T11:33:56.766Z,3460.00
2019-05-02T11:34:56.760Z,3508.00
2019-05-02T11:35:56.744Z,5512.00
2019-05-02T11:36:56.727Z,6132.00
2019-05-02T11:37:56.724Z,6136.00
2019-05-02T11:39:09.366Z,6120.00
2019-05-02T11:40:00.894Z,5236.00
2019-05-02T11:40:56.681Z,5908.00
2019-05-02T11:41:56.671Z,5520.00
2019-05-02T11:42:57.347Z,4844.00
2019-05-02T11:43:57.649Z,4184.00
2019-05-02T11:44:56.676Z,3832.00
2019-05-02T11:46:02.574Z,3644.00
2019-05-02T11:46:57.615Z,3576.00
2019-05-02T11:48:03.391Z,3656.00
2019-05-02T11:48:58.669Z,3536.00
2019-05-02T11:49:56.587Z,3388.00
2019-05-02T11:50:58.070Z,3848.00
2019-05-02T11:51:57.272Z,4544.00
2019-05-02T11:52:56.551Z,3972.00
2019-05-02T11:53:59.332Z,3736.00
2019-05-02T11:54:57.530Z,3632.00
2019-05-02T11:55:58.247Z,3980.00
2019-05-02T11:56:57.507Z,4876.00
2019-05-02T11:58:01.004Z,6168.00
2019-05-02T11:58:57.485Z,5816.00
2019-05-02T11:59:59.358Z,6036.00
2019-05-02T12:00:57.462Z,5760.00
2019-05-02T12:01:59.886Z,4984.00
2019-05-02T12:02:58.263Z,5540.00
2019-05-02T12:03:56.431Z,4852.00
2019-05-02T12:04:56.428Z,4416.00
2019-05-02T12:05:56.414Z,3760.00
2019-05-02T12:07:00.890Z,3540.00
2019-05-02T12:08:02.612Z,3316.00
2019-05-02T12:08:57.379Z,3884.00
2019-05-02T12:09:57.180Z,4100.00
2019-05-02T12:10:56.358Z,3620.00
2019-05-02T12:11:56.718Z,4592.00
2019-05-02T12:12:56.358Z,5764.00
2019-05-02T12:13:57.044Z,6308.00
2019-05-02T12:14:56.310Z,5728.00
2019-05-02T12:15:56.364Z,4412.00
2019-05-02T12:16:56.300Z,4000.00
2019-05-02T12:17:56.283Z,4180.00
2019-05-02T12:19:08.563Z,4272.00
2019-05-02T12:19:57.254Z,4408.00
2019-05-02T12:20:56.246Z,4620.00
2019-05-02T12:21:56.238Z,4680.00
2019-05-02T12:22:56.252Z,4236.00
2019-05-02T12:23:56.217Z,4520.00
2019-05-02T12:24:56.220Z,4452.00
2019-05-02T12:25:56.190Z,4812.00
2019-05-02T12:26:56.183Z,3800.00
2019-05-02T12:27:56.179Z,4728.00
2019-05-02T12:28:56.170Z,4516.00
2019-05-02T12:31:07.973Z,4760.00
2019-05-02T12:32:05.909Z,4920.00
2019-05-02T12:33:04.888Z,4124.00
2019-05-02T12:34:04.915Z,3688.00
2019-05-02T12:35:04.865Z,4132.00
2019-05-02T12:36:04.938Z,3900.00
2019-05-02T12:37:04.850Z,3408.00
2019-05-02T12:38:04.836Z,3712.00
2019-05-02T12:39:04.823Z,3852.00
2019-05-02T12:40:04.825Z,3584.00
2019-05-02T12:41:04.807Z,3668.00
2019-05-02T12:42:05.152Z,3152.00
2019-05-02T12:43:04.786Z,2984.00
2019-05-02T12:44:04.776Z,3160.00
2019-05-02T12:45:04.773Z,2836.00
2019-05-02T12:46:04.804Z,2912.00
2019-05-02T12:47:04.737Z,3256.00
2019-05-02T12:48:04.730Z,3100.00
2019-05-02T12:49:04.719Z,2868.00
2019-05-02T12:50:04.716Z,3072.00
2019-05-02T12:51:04.712Z,3040.00
2019-05-02T12:52:04.684Z,3196.00
2019-05-02T12:53:04.679Z,3732.00
2019-05-02T12:54:04.662Z,3448.00
2019-05-02T12:55:04.660Z,3568.00
2019-05-02T12:56:04.682Z,3468.00
2019-05-02T12:57:04.633Z,3448.00
2019-05-02T12:58:04.627Z,2812.00
2019-05-02T12:59:04.615Z,2812.00
2019-05-02T13:00:04.628Z,3816.00
2019-05-02T13:01:04.593Z,4260.00
2019-05-02T13:02:04.585Z,5152.00
2019-05-02T13:03:04.565Z,5028.00
2019-05-02T13:04:04.563Z,4184.00
2019-05-02T13:05:04.545Z,4396.00
2019-05-02T13:06:04.554Z,4116.00
2019-05-02T13:07:04.527Z,3944.00
2019-05-02T13:08:04.514Z,4004.00
2019-05-02T13:09:04.513Z,4244.00
2019-05-02T13:10:04.496Z,4356.00
2019-05-02T13:11:06.626Z,4548.00
2019-05-02T13:12:04.476Z,5532.00
2019-05-02T13:13:04.461Z,5268.00
2019-05-02T13:14:04.452Z,4788.00
2019-05-02T13:15:04.438Z,4396.00
2019-05-02T13:16:04.531Z,4004.00
2019-05-02T13:17:05.774Z,4552.00
2019-05-02T13:18:04.411Z,3944.00
2019-05-02T13:19:06.139Z,3816.00
2019-05-02T13:20:04.568Z,4732.00
2019-05-02T13:21:07.984Z,4308.00
2019-05-02T13:22:05.395Z,4720.00
2019-05-02T13:23:04.361Z,3696.00
2019-05-02T13:24:07.500Z,3440.00
2019-05-02T13:25:05.346Z,3388.00
2019-05-02T13:26:10.229Z,3168.00
2019-05-02T13:27:05.316Z,3524.00
2019-05-02T13:28:04.313Z,3520.00
2019-05-02T13:29:04.289Z,3472.00
2019-05-02T13:30:04.289Z,3140.00
2019-05-02T13:31:04.271Z,2952.00
2019-05-02T13:32:04.266Z,2840.00
2019-05-02T13:33:04.270Z,2888.00
2019-05-02T13:34:06.579Z,3316.00
2019-05-02T13:35:05.229Z,3556.00
2019-05-02T13:36:04.214Z,3280.00
2019-05-02T13:37:04.209Z,2648.00
2019-05-02T13:38:04.192Z,3916.00
2019-05-02T13:39:04.207Z,4264.00
2019-05-02T13:40:04.175Z,4104.00
2019-05-02T13:41:04.172Z,3652.00
2019-05-02T13:42:04.153Z,3860.00
2019-05-02T13:43:04.140Z,3948.00
2019-05-02T13:44:04.134Z,4424.00
2019-05-02T13:45:04.162Z,3944.00
2019-05-02T13:46:04.106Z,3432.00
2019-05-02T13:47:04.101Z,2940.00
2019-05-02T13:48:04.094Z,2920.00
2019-05-02T13:49:04.075Z,3056.00
2019-05-02T13:50:04.176Z,2512.00
2019-05-02T13:51:04.205Z,2784.00
2019-05-02T13:52:04.044Z,2748.00
2019-05-02T13:53:04.032Z,3084.00
2019-05-02T13:54:04.022Z,3292.00
2019-05-02T13:55:04.010Z,3500.00
2019-05-02T13:56:04.002Z,3972.00
2019-05-02T13:57:04.001Z,3520.00
2019-05-02T13:58:03.986Z,2992.00
2019-05-02T13:59:03.974Z,3688.00
2019-05-02T14:00:03.961Z,3804.00
2019-05-02T14:01:03.962Z,7232.00
2019-05-02T14:02:03.941Z,7216.00
2019-05-02T14:03:03.933Z,5380.00
2019-05-02T14:04:10.021Z,5112.00
2019-05-02T14:05:04.917Z,3832.00
2019-05-02T14:06:03.934Z,4372.00
2019-05-02T14:07:07.704Z,5472.00
2019-05-02T14:08:04.874Z,5220.00
2019-05-02T14:09:07.483Z,5280.00
2019-05-02T14:10:04.858Z,4516.00
2019-05-02T14:11:03.845Z,4464.00
2019-05-02T14:12:03.840Z,4804.00
2019-05-02T14:13:03.839Z,4460.00
2019-05-02T14:14:03.807Z,4680.00
2019-05-02T14:15:03.797Z,4528.00
2019-05-02T14:16:03.791Z,3516.00
2019-05-02T14:17:03.790Z,3548.00
2019-05-02T14:18:03.769Z,2932.00
2019-05-02T14:19:03.766Z,2636.00
2019-05-02T14:20:10.800Z,3764.00
2019-05-02T14:21:04.734Z,4016.00
2019-05-02T14:22:03.729Z,3824.00
2019-05-02T14:23:03.711Z,3496.00
2019-05-02T14:24:03.710Z,3584.00
2019-05-02T14:25:03.695Z,3680.00
2019-05-02T14:26:03.684Z,3652.00
2019-05-02T14:27:07.088Z,4388.00
2019-05-02T14:28:04.661Z,4328.00
2019-05-02T14:29:07.256Z,3364.00
2019-05-02T14:30:04.643Z,2456.00
2019-05-02T14:31:03.639Z,2644.00
2019-05-02T14:32:03.616Z,3628.00
2019-05-02T14:33:03.609Z,4004.00
2019-05-02T14:34:03.595Z,4620.00
2019-05-02T14:35:03.591Z,3656.00
2019-05-02T14:36:03.576Z,3076.00
2019-05-02T14:37:03.574Z,2904.00
2019-05-02T14:38:03.555Z,3292.00
2019-05-02T14:39:03.541Z,3276.00
2019-05-02T14:40:03.535Z,2920.00
2019-05-02T14:41:03.524Z,3208.00
2019-05-02T14:42:03.522Z,3168.00
2019-05-02T14:43:06.024Z,3360.00
2019-05-02T14:44:03.494Z,3144.00
2019-05-02T14:45:11.578Z,2496.00
2019-05-02T14:46:04.470Z,3904.00
2019-05-02T14:47:03.480Z,4808.00
2019-05-02T14:48:18.060Z,4620.00
2019-05-02T14:49:04.432Z,4192.00
2019-05-02T14:50:05.076Z,3796.00
2019-05-02T14:51:03.411Z,3416.00
2019-05-02T14:52:06.981Z,3752.00
2019-05-02T14:53:03.391Z,4156.00
2019-05-02T14:54:07.967Z,4884.00
2019-05-02T14:55:04.370Z,4552.00
2019-05-02T14:56:06.137Z,3964.00
2019-05-02T14:57:03.358Z,3856.00
2019-05-02T14:58:05.844Z,4560.00
2019-05-02T14:59:03.378Z,4112.00
2019-05-02T15:00:03.514Z,3348.00
2019-05-02T15:01:03.304Z,3456.00
2019-05-02T15:02:07.454Z,3696.00
2019-05-02T15:03:03.441Z,3536.00
2019-05-02T15:04:08.101Z,2648.00
2019-05-02T15:05:04.273Z,2832.00
2019-05-02T15:06:06.812Z,3220.00
2019-05-02T15:07:03.255Z,3244.00
2019-05-02T15:08:06.820Z,2980.00
2019-05-02T15:09:03.219Z,2264.00
2019-05-02T15:10:06.490Z,1884.00
2019-05-02T15:11:03.530Z,2196.00
2019-05-02T15:12:08.237Z,2020.00
2019-05-02T15:13:04.180Z,2072.00
2019-05-02T15:14:03.227Z,1812.00
2019-05-02T15:15:03.164Z,1788.00
2019-05-02T15:16:03.144Z,1912.00
2019-05-02T15:17:03.139Z,1736.00
2019-05-02T15:18:03.133Z,2728.00
2019-05-02T15:19:03.112Z,2856.00
2019-05-02T15:20:03.103Z,1924.00
2019-05-02T15:21:03.973Z,1468.00
2019-05-02T15:22:04.078Z,1180.00
2019-05-02T15:23:07.244Z,1000.00
2019-05-02T15:24:04.063Z,1040.00
2019-05-02T15:25:03.069Z,1260.00
2019-05-02T15:26:03.037Z,1352.00
2019-05-02T15:27:11.456Z,1096.00
2019-05-02T15:28:04.015Z,1116.00
2019-05-02T15:29:03.015Z,1348.00
2019-05-02T15:30:06.880Z,1264.00
2019-05-02T15:31:04.905Z,1044.00
2019-05-02T15:32:07.118Z,1160.00
2019-05-02T15:33:03.125Z,1220.00
2019-05-02T15:34:05.076Z,1000.00
2019-05-02T15:35:02.942Z,916.00
2019-05-02T15:36:07.302Z,1052.00
2019-05-02T15:37:02.948Z,1576.00
2019-05-02T15:38:06.658Z,1984.00
2019-05-02T15:41:07.581Z,3464.00
2019-05-02T15:42:03.869Z,4016.00
2019-05-02T15:43:09.288Z,3680.00
2019-05-02T15:44:03.860Z,3248.00
2019-05-02T15:45:05.669Z,2740.00
2019-05-02T15:46:02.825Z,2800.00
2019-05-02T15:47:05.602Z,3088.00
2019-05-02T15:48:02.816Z,3168.00
2019-05-02T15:49:05.697Z,2704.00
2019-05-02T15:50:03.120Z,2476.00
2019-05-02T15:51:06.176Z,2728.00
2019-05-02T15:52:03.765Z,3040.00
2019-05-02T15:53:09.461Z,3036.00
2019-05-02T15:54:08.471Z,2812.00
2019-05-02T15:55:04.275Z,2660.00
2019-05-02T15:56:02.732Z,2404.00
2019-05-02T15:57:05.487Z,2168.00
2019-05-02T15:58:02.709Z,2004.00
2019-05-02T15:59:06.051Z,1812.00
2019-05-02T16:00:02.679Z,1592.00
2019-05-02T16:01:04.948Z,1428.00
2019-05-02T16:02:03.016Z,1372.00
2019-05-02T16:03:04.347Z,1312.00
2019-05-02T16:04:02.640Z,1224.00
2019-05-02T16:05:05.415Z,1180.00
2019-05-02T16:06:02.610Z,1044.00
2019-05-02T16:07:07.139Z,984.00
2019-05-02T16:08:08.258Z,888.00
2019-05-02T16:09:03.589Z,832.00
2019-05-02T16:10:03.919Z,864.00
2019-05-02T16:11:02.955Z,864.00
2019-05-02T16:12:03.083Z,772.00
2019-05-02T16:13:03.763Z,708.00
2019-05-02T16:14:03.536Z,696.00
2019-05-02T16:15:07.224Z,668.00
2019-05-02T16:16:05.426Z,728.00
2019-05-02T16:17:03.768Z,756.00
2019-05-02T16:18:05.236Z,780.00
2019-05-02T16:19:02.476Z,780.00
2019-05-02T16:20:09.140Z,716.00
2019-05-02T16:21:07.537Z,708.00
2019-05-02T16:22:06.645Z,692.00
2019-05-02T16:23:03.431Z,616.00
2019-05-02T16:24:10.848Z,540.00
2019-05-02T16:25:03.420Z,516.00
2019-05-02T16:26:05.827Z,544.00
2019-05-02T16:27:03.406Z,680.00
2019-05-02T16:28:10.212Z,960.00
2019-05-02T16:29:02.917Z,1020.00
2019-05-02T16:30:06.030Z,840.00
2019-05-02T16:31:03.341Z,700.00
2019-05-02T16:32:03.548Z,724.00
2019-05-02T16:33:02.793Z,696.00
2019-05-02T16:34:02.416Z,688.00
2019-05-02T16:35:07.156Z,728.00
2019-05-02T16:36:03.302Z,720.00
2019-05-02T16:37:02.283Z,716.00
2019-05-02T16:38:02.279Z,756.00
2019-05-02T16:39:05.203Z,812.00
2019-05-02T16:40:03.251Z,848.00
2019-05-02T16:41:09.600Z,868.00
2019-05-02T16:42:04.752Z,920.00
2019-05-02T16:43:02.812Z,972.00
2019-05-02T16:44:02.212Z,1060.00
2019-05-02T16:45:02.722Z,1004.00
2019-05-02T16:46:02.186Z,916.00
2019-05-02T16:47:02.307Z,868.00
2019-05-02T16:48:03.220Z,716.00
2019-05-02T16:49:02.177Z,672.00
2019-05-02T16:50:02.538Z,712.00
2019-05-02T16:51:02.269Z,620.00
2019-05-02T16:52:07.337Z,628.00
2019-05-02T16:53:03.106Z,760.00
2019-05-02T16:54:05.011Z,716.00
2019-05-02T16:55:02.927Z,888.00
2019-05-02T16:56:05.554Z,924.00
2019-05-02T16:57:02.068Z,928.00
2019-05-02T16:58:07.199Z,960.00
2019-05-02T16:59:03.047Z,832.00
2019-05-02T17:00:05.952Z,748.00
2019-05-02T17:01:02.025Z,676.00
2019-05-02T17:02:07.525Z,564.00
2019-05-02T17:03:03.880Z,480.00
2019-05-02T17:04:03.107Z,444.00
2019-05-02T17:05:08.017Z,440.00
2019-05-02T17:06:02.980Z,440.00
2019-05-02T17:07:05.673Z,432.00
2019-05-02T17:08:02.352Z,400.00
2019-05-02T17:09:02.304Z,368.00
2019-05-02T17:10:02.901Z,348.00
2019-05-02T17:11:02.144Z,324.00
2019-05-02T17:12:02.054Z,324.00
2019-05-02T17:13:02.760Z,304.00
2019-05-02T17:14:02.374Z,288.00
2019-05-02T17:15:01.877Z,304.00
2019-05-02T17:16:06.929Z,396.00
2019-05-02T17:17:02.851Z,472.00
2019-05-02T17:18:05.138Z,488.00
2019-05-02T17:19:02.847Z,516.00
2019-05-02T17:20:02.648Z,424.00
2019-05-02T17:21:02.838Z,332.00
2019-05-02T17:22:02.609Z,252.00
2019-05-02T17:23:06.597Z,200.00
2019-05-02T17:24:02.775Z,168.00
2019-05-02T17:25:05.798Z,128.00
2019-05-02T17:26:01.762Z,128.00
2019-05-02T17:27:02.585Z,136.00
2019-05-02T17:28:06.989Z,120.00
2019-05-02T17:29:02.721Z,104.00
2019-05-02T17:30:03.785Z,104.00
2019-05-02T17:31:01.698Z,104.00
2019-05-02T17:32:02.178Z,120.00
2019-05-02T17:33:01.930Z,124.00
2019-05-02T17:34:02.734Z,120.00
2019-05-02T17:35:02.636Z,136.00
2019-05-02T17:36:02.650Z,120.00
2019-05-02T17:37:07.317Z,112.00
2019-05-02T17:38:02.721Z,128.00
2019-05-02T17:39:06.781Z,124.00
2019-05-02T17:40:02.611Z,108.00
2019-05-02T17:41:06.411Z,88.00
2019-05-02T17:42:02.688Z,80.00
2019-05-02T17:43:05.491Z,76.00
2019-05-02T17:44:03.181Z,68.00
2019-05-02T17:45:03.842Z,64.00
2019-05-02T17:46:01.545Z,64.00
2019-05-02T17:47:01.846Z,64.00
2019-05-02T17:48:01.531Z,68.00
2019-05-02T17:49:02.559Z,72.00
2019-05-02T17:50:02.145Z,76.00
2019-05-02T17:51:02.172Z,84.00
2019-05-02T17:52:05.613Z,84.00
2019-05-02T17:53:03.053Z,72.00
2019-05-02T17:54:02.945Z,68.00